Time;durP1;ratioP1;P1;durP2;ratioP2;P2;SDS_P1;SDS_P2;PMS_P1;PMS_P2;Temp;Humidity;BMP_temperature;BMP_pressure;BME280_temperature;BME280_humidity;BME280_pressure;Samples;Min_cycle;Max_cycle;Signal;HPM_P1;HPM_P2
2021/07/11 00:02:32;;;;;;;4.43;1.98;;;;;;;11.82;84.33;90892.53;4975152;28;20549;-87
2021/07/11 00:05:09;;;;;;;4.10;2.22;;;;;;;11.82;84.85;90898.50;4975172;28;20030;-87
2021/07/11 00:07:49;;;;;;;3.35;2.25;;;;;;;11.77;86.02;90904.00;4974799;28;20523;-87
2021/07/11 00:10:25;;;;;;;3.97;2.47;;;;;;;11.80;85.60;90908.56;4973632;28;20038;-88
2021/07/11 00:13:04;;;;;;;3.50;2.20;;;;;;;11.82;83.04;90908.22;4974100;28;20026;-87
2021/07/11 00:15:34;;;;;;;3.50;1.95;;;;;;;11.83;84.39;90907.09;4971962;28;20042;-87
2021/07/11 00:18:13;;;;;;;3.03;1.95;;;;;;;11.83;83.79;90910.47;4973706;28;20038;-88
2021/07/11 00:20:50;;;;;;;5.05;2.08;;;;;;;11.74;83.90;90907.28;4989745;28;20059;-86
2021/07/11 00:23:26;;;;;;;4.82;2.00;;;;;;;11.80;84.59;90905.94;5000582;28;20026;-87
2021/07/11 00:26:03;;;;;;;4.22;1.88;;;;;;;11.81;85.27;90904.84;4956450;28;20061;-87
2021/07/11 00:28:40;;;;;;;4.65;1.83;;;;;;;11.88;85.08;90905.03;4942407;28;20117;-87
2021/07/11 00:31:11;;;;;;;4.45;2.00;;;;;;;11.85;85.02;90908.31;4958049;28;20030;-87
2021/07/11 00:33:48;;;;;;;4.60;1.75;;;;;;;11.97;84.44;90904.88;4974104;28;20509;-87
2021/07/11 00:36:27;;;;;;;2.75;1.70;;;;;;;12.01;84.00;90912.78;4958321;28;20027;-87
2021/07/11 00:39:03;;;;;;;2.80;1.50;;;;;;;11.95;83.98;90905.22;4958390;28;20035;-88
2021/07/11 00:41:47;;;;;;;2.72;1.65;;;;;;;11.91;84.48;90914.06;4980741;28;20486;-87
2021/07/11 00:44:24;;;;;;;2.90;1.65;;;;;;;11.89;84.63;90908.41;4977621;28;20053;-88
2021/07/11 00:46:57;;;;;;;2.83;1.73;;;;;;;11.85;84.96;90915.41;4993236;28;20022;-88
2021/07/11 00:49:34;;;;;;;2.42;1.65;;;;;;;11.88;85.16;90914.75;4976924;28;20030;-87
2021/07/11 00:52:11;;;;;;;2.92;1.67;;;;;;;11.92;84.64;90921.56;4976732;28;20494;-87
2021/07/11 00:54:47;;;;;;;2.67;1.80;;;;;;;11.93;84.73;90910.00;4976887;28;20054;-88
2021/07/11 00:57:25;;;;;;;3.25;1.63;;;;;;;11.96;84.87;90916.41;4977042;28;20038;-88
2021/07/11 01:00:05;;;;;;;3.22;1.88;;;;;;;11.87;85.18;90918.41;4990330;28;20026;-87
2021/07/11 01:03:04;;;;;;;5.03;1.95;;;;;;;11.88;85.13;90919.97;4992545;28;20545;-87
2021/07/11 01:05:43;;;;;;;5.15;1.80;;;;;;;11.84;85.88;90919.88;4978950;28;20050;-87
2021/07/11 01:08:43;;;;;;;5.88;2.03;;;;;;;11.88;85.40;90912.88;4977104;28;20101;-86
2021/07/11 01:11:18;;;;;;;3.00;1.70;;;;;;;12.01;83.89;90907.56;4987455;28;20118;-87
2021/07/11 01:13:49;;;;;;;2.92;1.80;;;;;;;12.02;83.97;90917.69;4971533;28;20030;-88
2021/07/11 01:16:24;;;;;;;3.30;1.92;;;;;;;12.01;83.73;90928.47;4976371;28;20030;-87
2021/07/11 01:19:02;;;;;;;3.70;2.30;;;;;;;12.00;83.87;90924.34;4976906;28;20022;-88
2021/07/11 01:21:36;;;;;;;5.18;2.70;;;;;;;11.93;84.92;90928.28;4977289;28;20038;-88
2021/07/11 01:24:25;;;;;;;6.15;2.60;;;;;;;12.06;83.83;90941.28;4976785;28;20081;-88
2021/07/11 01:27:02;;;;;;;5.38;2.88;;;;;;;11.97;84.52;90933.59;5011281;28;20018;-89
2021/07/11 01:29:30;;;;;;;5.95;3.70;;;;;;;12.02;83.66;90933.38;4960498;28;20042;-88
2021/07/11 01:32:04;;;;;;;6.53;3.38;;;;;;;12.13;83.12;90933.63;4976176;28;20026;-88
2021/07/11 01:34:50;;;;;;;4.90;3.35;;;;;;;12.05;82.75;90934.53;4961549;28;20038;-87
2021/07/11 01:37:18;;;;;;;6.75;3.60;;;;;;;11.87;84.08;90934.88;4991970;28;20030;-88
2021/07/11 01:39:56;;;;;;;6.55;3.67;;;;;;;11.93;83.54;90927.53;4976000;28;20022;-87
2021/07/11 01:42:36;;;;;;;6.00;3.58;;;;;;;11.86;84.91;90935.94;4975951;28;20073;-87
2021/07/11 01:45:17;;;;;;;6.05;3.40;;;;;;;11.89;85.90;90934.53;4960985;28;20030;-88
2021/07/11 01:47:59;;;;;;;3.95;2.70;;;;;;;11.84;86.02;90924.34;4961093;28;20593;-87
2021/07/11 01:50:40;;;;;;;4.95;3.00;;;;;;;11.85;86.42;90920.63;4976812;28;20026;-88
2021/07/11 01:53:18;;;;;;;6.75;3.35;;;;;;;11.73;86.91;90924.00;4960800;28;20022;-88
2021/07/11 01:56:00;;;;;;;5.95;3.30;;;;;;;11.87;84.54;90929.66;4976674;28;20032;-88
2021/07/11 01:58:39;;;;;;;8.32;4.47;;;;;;;11.85;84.36;90926.59;4991643;28;20030;-88
2021/07/11 02:01:18;;;;;;;4.68;3.17;;;;;;;11.84;84.98;90927.69;4976479;28;20026;-88
2021/07/11 02:03:56;;;;;;;7.50;3.17;;;;;;;11.86;85.96;90935.94;4976232;28;20030;-88
2021/07/11 02:06:35;;;;;;;6.57;3.25;;;;;;;11.84;85.62;90924.34;4986634;28;20018;-87
2021/07/11 02:09:17;;;;;;;7.85;4.00;;;;;;;11.80;86.52;90934.66;5013902;28;20014;-87
2021/07/11 02:11:54;;;;;;;6.93;3.10;;;;;;;11.82;86.70;90922.03;4982677;28;20022;-88
2021/07/11 02:14:37;;;;;;;7.10;3.67;;;;;;;11.85;86.54;90931.81;4991210;28;20026;-88
2021/07/11 02:17:18;;;;;;;6.60;3.30;;;;;;;11.87;86.06;90939.31;4959833;28;20030;-87
2021/07/11 02:20:01;;;;;;;5.32;3.30;;;;;;;11.72;86.97;90931.09;4960297;28;20136;-88
2021/07/11 02:22:42;;;;;;;6.75;3.08;;;;;;;11.83;85.33;90926.13;4961031;28;20022;-88
2021/07/11 02:25:19;;;;;;;5.68;3.10;;;;;;;11.72;86.14;90922.50;4976023;28;20018;-86
2021/07/11 02:27:52;;;;;;;5.80;3.38;;;;;;;11.83;86.43;90918.31;4976311;28;20026;-88
2021/07/11 02:30:39;;;;;;;7.85;3.30;;;;;;;11.75;86.85;90923.69;4959608;28;20479;-86
2021/07/11 02:33:27;;;;;;;6.68;3.17;;;;;;;11.86;86.68;90922.13;4993211;28;20038;-87
2021/07/11 02:36:04;;;;;;;6.20;3.03;;;;;;;11.80;86.82;90924.22;4976419;28;20437;-87
2021/07/11 02:38:59;;;;;;;7.15;3.50;;;;;;;11.68;87.10;90921.66;4990878;28;20038;-88
2021/07/11 02:41:40;;;;;;;7.28;3.42;;;;;;;11.64;87.51;90915.59;4977082;28;20487;-87
2021/07/11 02:44:16;;;;;;;6.18;3.25;;;;;;;11.62;87.40;90923.72;4975824;28;20406;-87
2021/07/11 02:47:03;;;;;;;5.30;3.67;;;;;;;11.53;87.74;90932.81;4991856;28;20033;-88
2021/07/11 02:49:38;;;;;;;7.10;3.72;;;;;;;11.51;87.32;90932.38;4975934;28;20796;-88
2021/07/11 02:52:14;;;;;;;7.53;3.55;;;;;;;11.53;87.55;90925.75;4958995;28;20030;-89
2021/07/11 02:55:04;;;;;;;8.07;3.88;;;;;;;11.47;87.57;90917.38;4975025;28;20030;-88
2021/07/11 02:57:44;;;;;;;7.80;3.75;;;;;;;11.51;87.41;90916.72;5051384;23;20054;-85
2021/07/11 03:00:20;;;;;;;6.43;3.90;;;;;;;11.42;87.57;90911.66;5009972;28;20030;-83
2021/07/11 03:02:55;;;;;;;7.28;3.33;;;;;;;11.37;87.37;90906.66;4993694;28;20036;-86
2021/07/11 03:05:34;;;;;;;4.82;3.03;;;;;;;11.40;87.30;90911.97;5010178;28;20026;-85
2021/07/11 03:08:14;;;;;;;8.88;3.60;;;;;;;11.31;86.69;90919.19;5010335;28;20062;-85
2021/07/11 03:10:50;;;;;;;7.93;3.33;;;;;;;11.23;87.24;90917.47;5025305;28;20018;-85
2021/07/11 03:13:28;;;;;;;5.35;3.15;;;;;;;11.10;86.82;90908.19;5009761;28;20076;-86
2021/07/11 03:16:11;;;;;;;6.45;3.63;;;;;;;11.08;86.67;90910.34;4993854;28;20029;-85
2021/07/11 03:18:48;;;;;;;8.50;3.38;;;;;;;10.96;87.18;90909.31;5013777;28;20026;-85
2021/07/11 03:21:31;;;;;;;5.30;3.20;;;;;;;10.94;86.36;90902.88;5013425;28;20030;-85
2021/07/11 03:24:10;;;;;;;5.85;3.25;;;;;;;11.08;85.81;90894.72;4997589;28;20393;-85
2021/07/11 03:26:49;;;;;;;8.30;3.20;;;;;;;11.07;85.39;90898.41;5013676;28;20057;-85
2021/07/11 03:29:52;;;;;;;5.55;3.17;;;;;;;10.96;85.41;90904.09;5012380;28;20378;-86
2021/07/11 03:32:29;;;;;;;7.60;3.28;;;;;;;10.65;87.03;90893.50;5028998;28;20029;-85
2021/07/11 03:35:05;;;;;;;7.30;3.30;;;;;;;10.67;86.62;90893.91;5029337;28;20051;-85
2021/07/11 03:37:50;;;;;;;5.95;3.25;;;;;;;10.66;86.99;90889.81;4994317;28;20038;-84
2021/07/11 03:40:30;;;;;;;4.93;3.20;;;;;;;10.62;87.10;90894.16;4993659;28;20375;-85
2021/07/11 03:43:10;;;;;;;4.95;2.95;;;;;;;10.64;86.79;90907.63;4977628;28;20022;-85
2021/07/11 03:45:41;;;;;;;9.23;3.28;;;;;;;10.55;86.93;90904.38;4978932;28;20388;-84
2021/07/11 03:48:28;;;;;;;5.07;3.35;;;;;;;10.60;86.51;90906.75;5002505;28;20106;-87
2021/07/11 03:51:08;;;;;;;5.05;2.83;;;;;;;10.52;86.43;90910.97;4993302;28;20026;-87
2021/07/11 03:53:49;;;;;;;5.53;3.10;;;;;;;10.46;86.54;90915.66;4993748;28;20030;-87
2021/07/11 03:56:33;;;;;;;7.00;3.30;;;;;;;10.38;86.65;90916.53;4993276;28;20113;-87
2021/07/11 03:59:14;;;;;;;6.87;3.40;;;;;;;10.51;86.27;90912.06;4993427;28;20034;-87
2021/07/11 04:01:52;;;;;;;5.43;2.40;;;;;;;10.24;87.25;90905.63;4978322;28;20022;-87
2021/07/11 04:04:32;;;;;;;6.38;2.92;;;;;;;10.21;87.87;90911.50;4989907;28;20037;-86
2021/07/11 04:07:08;;;;;;;7.43;3.38;;;;;;;10.31;86.84;90915.53;5010863;28;20912;-87
2021/07/11 04:09:45;;;;;;;7.22;2.83;;;;;;;10.41;86.43;90913.28;5013126;28;20030;-87
2021/07/11 04:12:20;;;;;;;5.85;3.78;;;;;;;10.38;86.77;90908.72;5012857;28;20061;-87
2021/07/11 04:14:58;;;;;;;7.63;3.17;;;;;;;10.39;86.42;90907.63;5012809;28;20516;-87
2021/07/11 04:17:38;;;;;;;5.80;3.17;;;;;;;10.35;86.79;90913.81;5028436;28;20037;-87
2021/07/11 04:20:16;;;;;;;7.55;3.35;;;;;;;10.36;86.79;90903.06;5012071;28;20497;-86
2021/07/11 04:22:56;;;;;;;6.18;2.95;;;;;;;10.36;87.10;90900.47;5009611;28;20087;-87
2021/07/11 04:25:42;;;;;;;6.03;2.65;;;;;;;10.44;86.38;90897.00;4995558;28;20419;-86
2021/07/11 04:28:18;;;;;;;6.55;3.47;;;;;;;10.48;86.61;90908.28;4992329;28;20090;-87
2021/07/11 04:31:01;;;;;;;5.28;3.00;;;;;;;10.45;87.02;90906.31;5008777;28;20050;-87
2021/07/11 04:33:40;;;;;;;6.18;3.08;;;;;;;10.46;86.76;90902.66;5007790;28;20046;-87
2021/07/11 04:36:21;;;;;;;7.82;3.80;;;;;;;10.34;86.68;90905.25;5009184;28;20031;-87
2021/07/11 04:38:58;;;;;;;8.70;3.60;;;;;;;10.46;87.28;90900.03;4994628;28;20117;-87
2021/07/11 04:41:42;;;;;;;6.70;3.33;;;;;;;10.49;87.48;90906.41;4992452;28;20573;-88
2021/07/11 04:44:22;;;;;;;10.10;4.03;;;;;;;10.62;87.22;90909.78;4992828;28;20030;-85
2021/07/11 04:47:01;;;;;;;9.38;3.30;;;;;;;10.62;86.91;90905.34;4993231;28;20041;-88
2021/07/11 04:49:37;;;;;;;7.25;3.47;;;;;;;10.73;86.55;90900.44;4992159;28;20034;-87
2021/07/11 04:52:19;;;;;;;6.40;3.75;;;;;;;10.86;86.81;90909.75;4992295;28;20150;-87
2021/07/11 04:54:53;;;;;;;6.85;3.55;;;;;;;11.03;86.95;90905.38;4976215;28;20482;-87
2021/07/11 04:57:32;;;;;;;8.57;4.10;;;;;;;11.05;86.36;90901.34;4991410;28;20038;-86
2021/07/11 05:00:09;;;;;;;5.78;3.08;;;;;;;11.13;86.38;90899.69;5007204;28;20662;-87
2021/07/11 05:02:46;;;;;;;7.47;4.45;;;;;;;11.27;85.96;90902.66;4976141;28;20402;-87
2021/07/11 05:05:22;;;;;;;7.53;3.08;;;;;;;11.42;84.79;90909.81;4992111;28;20101;-88
2021/07/11 05:08:01;;;;;;;5.53;3.08;;;;;;;11.42;86.77;90914.28;4991790;28;20093;-88
2021/07/11 05:10:38;;;;;;;7.03;3.13;;;;;;;11.64;85.31;90899.94;4992090;28;20029;-87
2021/07/11 05:13:12;;;;;;;5.38;3.20;;;;;;;11.60;85.73;90914.75;5004123;28;20406;-89
2021/07/11 05:15:49;;;;;;;5.30;3.22;;;;;;;11.67;85.61;90899.25;4992148;28;20038;-87
2021/07/11 05:18:23;;;;;;;5.80;3.13;;;;;;;11.80;84.36;90903.34;4994236;28;20457;-87
2021/07/11 05:21:02;;;;;;;4.82;2.95;;;;;;;11.89;85.37;90908.41;5011045;28;20104;-88
2021/07/11 05:23:40;;;;;;;5.65;3.17;;;;;;;11.94;83.84;90906.31;5008290;28;20026;-88
2021/07/11 05:26:16;;;;;;;8.23;3.15;;;;;;;11.91;84.30;90912.22;4999135;28;20121;-87
2021/07/11 05:28:56;;;;;;;7.57;3.30;;;;;;;12.10;84.28;90911.53;4991767;28;20026;-86
2021/07/11 05:31:30;;;;;;;6.18;3.60;;;;;;;11.99;84.55;90904.56;4991198;28;20029;-87
2021/07/11 05:34:10;;;;;;;5.00;3.33;;;;;;;11.99;85.21;90909.78;4991729;28;20030;-87
2021/07/11 05:36:48;;;;;;;5.60;3.20;;;;;;;12.00;83.32;90909.44;4991519;28;20117;-87
2021/07/11 05:39:26;;;;;;;6.35;3.10;;;;;;;12.06;83.92;90917.78;4991163;28;20108;-88
2021/07/11 05:42:04;;;;;;;4.38;2.97;;;;;;;12.18;83.99;90920.31;4991905;28;20399;-87
2021/07/11 05:44:38;;;;;;;7.53;3.13;;;;;;;12.32;81.95;90910.19;4975493;28;20044;-87
2021/07/11 05:47:22;;;;;;;4.05;2.75;;;;;;;12.18;80.44;90915.09;4991748;28;20026;-87
2021/07/11 05:49:58;;;;;;;4.35;2.60;;;;;;;12.29;80.57;90915.34;4997650;28;20026;-87
2021/07/11 05:52:41;;;;;;;4.32;2.53;;;;;;;12.38;79.26;90915.94;5007829;28;20029;-88
2021/07/11 05:55:21;;;;;;;4.70;2.93;;;;;;;12.54;80.91;90919.28;5007381;28;20030;-87
2021/07/11 05:58:00;;;;;;;5.13;2.13;;;;;;;12.70;79.11;90923.75;5009249;28;20030;-87
2021/07/11 06:00:42;;;;;;;6.00;2.35;;;;;;;12.70;78.83;90916.66;4995000;28;20026;-87
2021/07/11 06:03:16;;;;;;;3.28;2.08;;;;;;;12.70;78.50;90921.88;5011215;28;20017;-87
2021/07/11 06:06:03;;;;;;;4.07;2.50;;;;;;;12.78;76.64;90925.41;5010849;28;20036;-87
2021/07/11 06:08:37;;;;;;;6.60;2.33;;;;;;;13.06;76.29;90922.66;5010897;28;20069;-88
2021/07/11 06:11:17;;;;;;;4.93;2.38;;;;;;;13.10;75.64;90923.47;5010619;28;20441;-88
2021/07/11 06:13:48;;;;;;;6.65;2.47;;;;;;;13.24;75.50;90923.03;4994931;28;20037;-88
2021/07/11 06:16:23;;;;;;;4.32;2.35;;;;;;;13.33;73.45;90932.22;5009184;28;20037;-87
2021/07/11 06:19:03;;;;;;;7.07;2.15;;;;;;;13.38;72.54;90929.31;5010626;28;20026;-87
2021/07/11 06:21:42;;;;;;;5.78;2.42;;;;;;;13.46;73.80;90932.81;5025994;28;20025;-88
2021/07/11 06:24:20;;;;;;;3.80;2.15;;;;;;;13.34;72.64;90925.88;5010955;28;20022;-87
2021/07/11 06:27:03;;;;;;;5.72;2.08;;;;;;;13.57;74.83;90938.28;4992540;28;20041;-87
2021/07/11 06:29:30;;;;;;;4.63;2.08;;;;;;;13.56;71.90;90928.91;5005581;28;20030;-87
2021/07/11 06:32:11;;;;;;;3.40;2.03;;;;;;;13.37;73.37;90927.81;4998038;28;20478;-87
2021/07/11 06:34:50;;;;;;;4.50;2.20;;;;;;;13.55;71.87;90920.28;5009421;28;20060;-87
2021/07/11 06:37:25;;;;;;;5.20;2.30;;;;;;;13.63;71.38;90918.56;4975787;28;20030;-87
2021/07/11 06:39:58;;;;;;;8.40;2.50;;;;;;;13.70;73.42;90920.56;4991062;28;20482;-87
2021/07/11 06:42:31;;;;;;;3.85;1.90;;;;;;;13.81;70.80;90929.34;4992496;28;20109;-87
2021/07/11 06:45:07;;;;;;;4.65;2.05;;;;;;;13.78;72.64;90922.97;4990971;28;20022;-88
2021/07/11 06:47:41;;;;;;;3.15;2.08;;;;;;;14.10;75.56;90928.03;4991154;28;20022;-87
2021/07/11 06:50:18;;;;;;;3.33;2.10;;;;;;;14.19;74.41;90928.53;5005183;28;20026;-87
2021/07/11 06:52:53;;;;;;;4.78;2.28;;;;;;;14.22;73.59;90932.31;4993562;28;20031;-85
2021/07/11 06:55:25;;;;;;;2.80;1.67;;;;;;;14.39;71.39;90929.25;4995160;28;20026;-85
2021/07/11 06:58:01;;;;;;;3.42;1.70;;;;;;;14.30;71.54;90926.84;4994335;28;20099;-85
2021/07/11 07:00:37;;;;;;;3.40;1.60;;;;;;;14.25;68.89;90921.16;4994272;28;20486;-85
2021/07/11 07:03:14;;;;;;;3.30;1.80;;;;;;;13.97;69.64;90922.19;4994516;28;20030;-85
2021/07/11 07:05:50;;;;;;;4.28;2.08;;;;;;;13.96;69.89;90923.28;4996527;28;20076;-84
2021/07/11 07:08:26;;;;;;;2.92;1.77;;;;;;;13.93;70.36;90913.50;5014694;28;20026;-86
2021/07/11 07:11:07;;;;;;;4.25;2.00;;;;;;;14.11;70.37;90919.81;5014025;28;20026;-86
2021/07/11 07:13:47;;;;;;;3.20;1.77;;;;;;;14.30;71.86;90921.59;5014682;28;20029;-85
2021/07/11 07:16:27;;;;;;;2.95;2.10;;;;;;;14.22;67.02;90916.59;5030188;28;20558;-85
2021/07/11 07:19:06;;;;;;;2.53;1.75;;;;;;;14.33;70.06;90926.16;4998323;28;20029;-85
2021/07/11 07:21:48;;;;;;;3.75;1.52;;;;;;;14.50;68.47;90921.56;5003238;28;20026;-82
2021/07/11 07:24:28;;;;;;;2.58;1.35;;;;;;;14.89;67.90;90927.41;5010277;28;20033;-85
2021/07/11 07:27:11;;;;;;;6.97;2.00;;;;;;;14.91;68.81;90929.66;5013348;28;20037;-85
2021/07/11 07:29:56;;;;;;;4.70;1.80;;;;;;;14.87;68.51;90936.72;4997790;28;20034;-85
2021/07/11 07:32:37;;;;;;;2.38;1.40;;;;;;;14.89;65.05;90935.28;5028605;28;20030;-84
2021/07/11 07:35:16;;;;;;;3.78;1.10;;;;;;;14.93;65.04;90932.69;5029715;28;20037;-85
2021/07/11 07:37:57;;;;;;;2.88;1.35;;;;;;;14.71;64.24;90932.38;5003222;28;20029;-84
2021/07/11 07:40:37;;;;;;;2.65;1.42;;;;;;;14.74;64.92;90936.94;4994115;28;20050;-85
2021/07/11 07:43:16;;;;;;;2.33;1.30;;;;;;;14.84;65.04;90940.84;4994267;28;20117;-85
2021/07/11 07:45:58;;;;;;;3.60;1.30;;;;;;;15.09;64.44;90941.19;4994255;28;20568;-85
2021/07/11 07:48:35;;;;;;;1.48;1.10;;;;;;;15.05;64.25;90940.34;4979057;28;20391;-85
2021/07/11 07:51:16;;;;;;;2.42;1.27;;;;;;;15.02;63.38;90935.84;4995558;28;20118;-85
2021/07/11 07:53:54;;;;;;;2.33;1.35;;;;;;;15.11;62.13;90944.19;4997304;28;20450;-85
2021/07/11 07:56:26;;;;;;;2.47;1.30;;;;;;;15.30;62.20;90945.97;5013285;28;20065;-85
2021/07/11 07:59:05;;;;;;;2.88;1.60;;;;;;;15.25;61.83;90938.38;5029778;28;20030;-85
2021/07/11 08:01:41;;;;;;;3.78;1.35;;;;;;;15.37;61.16;90940.81;5013931;28;20022;-86
2021/07/11 08:04:22;;;;;;;2.78;1.20;;;;;;;15.49;62.44;90935.31;5013650;28;20013;-85
2021/07/11 08:07:05;;;;;;;3.40;1.33;;;;;;;15.45;61.92;90931.13;5028211;28;20017;-85
2021/07/11 08:09:50;;;;;;;1.80;1.10;;;;;;;15.74;61.30;90942.75;5013391;28;20524;-88
2021/07/11 08:12:23;;;;;;;2.95;1.20;;;;;;;15.86;61.99;90934.63;5000858;28;20034;-88
2021/07/11 08:14:58;;;;;;;2.75;1.30;;;;;;;16.09;60.06;90929.25;5012530;28;20057;-88
2021/07/11 08:17:44;;;;;;;2.97;1.23;;;;;;;16.05;59.78;90938.97;5012356;28;20045;-87
2021/07/11 08:20:18;;;;;;;3.75;2.25;;;;;;;15.92;57.81;90938.44;5012775;28;20462;-87
2021/07/11 08:22:54;;;;;;;1.63;1.00;;;;;;;16.07;58.81;90944.59;5028912;28;20021;-88
2021/07/11 08:25:30;;;;;;;1.85;1.33;;;;;;;16.19;58.89;90946.25;4990859;28;20030;-87
2021/07/11 08:28:07;;;;;;;3.30;1.30;;;;;;;16.35;60.15;90949.38;4993924;28;20026;-87
2021/07/11 08:30:43;;;;;;;3.30;1.30;;;;;;;16.48;59.93;90952.50;4994011;28;20030;-87
2021/07/11 08:33:23;;;;;;;3.13;1.30;;;;;;;16.16;59.54;90955.59;5008883;28;20029;-87
2021/07/11 08:36:01;;;;;;;2.63;1.58;;;;;;;15.73;60.86;90957.78;5008271;28;20277;-87
2021/07/11 08:38:28;;;;;;;4.97;1.60;;;;;;;15.58;62.51;90956.03;4994765;28;20491;-87
2021/07/11 08:41:01;;;;;;;3.50;1.40;;;;;;;15.42;61.71;90948.34;4993442;28;20030;-86
2021/07/11 08:43:33;;;;;;;2.92;1.30;;;;;;;15.61;62.63;90950.06;5008024;28;20025;-87
2021/07/11 08:46:09;;;;;;;2.63;1.65;;;;;;;15.66;65.42;90952.44;4992234;28;20049;-88
2021/07/11 08:48:42;;;;;;;3.42;1.70;;;;;;;15.85;65.02;90956.75;4992911;28;20026;-87
2021/07/11 08:51:14;;;;;;;3.83;1.70;;;;;;;16.29;62.46;90957.97;5010896;28;20478;-86
2021/07/11 08:53:54;;;;;;;3.90;1.48;;;;;;;16.70;59.81;90943.66;5012100;28;20168;-87
2021/07/11 08:59:02;;;;;;;1.80;1.20;;;;;;;17.08;59.76;90952.25;4972102;28;20054;-86
2021/07/11 09:01:39;;;;;;;4.25;2.20;;;;;;;16.57;62.99;90952.97;4974190;28;20046;-87
2021/07/11 09:04:20;;;;;;;5.53;1.88;;;;;;;16.68;62.96;90953.81;4973078;28;20126;-86
2021/07/11 09:06:58;;;;;;;8.55;1.80;;;;;;;16.60;63.25;90954.84;4958473;28;20031;-86
2021/07/11 09:09:38;;;;;;;3.28;1.80;;;;;;;16.61;59.82;90953.75;4972193;28;20027;-87
2021/07/11 09:12:18;;;;;;;2.00;1.20;;;;;;;16.38;59.61;90950.53;4973778;28;20023;-86
2021/07/11 09:14:56;;;;;;;2.90;1.27;;;;;;;16.05;62.17;90946.09;4956234;28;20027;-87
2021/07/11 09:17:36;;;;;;;2.90;1.42;;;;;;;16.58;59.87;90945.84;4957035;28;20062;-86
2021/07/11 09:20:17;;;;;;;3.10;1.75;;;;;;;16.92;60.52;90949.13;4972321;28;20065;-87
2021/07/11 09:22:50;;;;;;;1.63;0.85;;;;;;;17.07;54.87;90942.84;4957292;28;20062;-88
2021/07/11 09:25:24;;;;;;;1.83;1.00;;;;;;;17.17;56.05;90938.75;4956735;28;20059;-88
2021/07/11 09:28:03;;;;;;;1.45;0.90;;;;;;;17.23;56.20;90947.06;4956700;28;20105;-87
2021/07/11 09:30:38;;;;;;;1.83;0.90;;;;;;;17.09;57.80;90937.94;4966150;28;20090;-86
2021/07/11 09:33:27;;;;;;;1.30;0.77;;;;;;;17.23;51.78;90941.81;4972164;28;20026;-86
2021/07/11 09:36:10;;;;;;;2.28;0.80;;;;;;;17.37;51.42;90942.63;4955450;28;20035;-87
2021/07/11 09:38:43;;;;;;;1.83;0.77;;;;;;;17.35;53.47;90941.47;4972071;28;20030;-86
2021/07/11 09:41:27;;;;;;;1.35;0.75;;;;;;;17.24;53.47;90949.31;4972055;28;20395;-86
2021/07/11 09:43:57;;;;;;;1.77;0.93;;;;;;;17.26;54.03;90954.25;4956841;28;20026;-88
2021/07/11 09:46:25;;;;;;;1.33;0.80;;;;;;;17.09;55.73;90948.47;4973490;28;20030;-86
2021/07/11 09:48:56;;;;;;;5.32;1.55;;;;;;;16.92;58.44;90957.75;4954449;28;20101;-86
2021/07/11 09:51:29;;;;;;;3.40;1.13;;;;;;;17.02;58.67;90960.84;4955442;28;20106;-86
2021/07/11 09:54:15;;;;;;;2.53;1.15;;;;;;;17.15;57.62;90957.56;4977130;28;20058;-90
2021/07/11 09:56:46;;;;;;;1.75;0.88;;;;;;;17.09;57.30;90951.13;4998141;28;20082;-88
2021/07/11 09:59:14;;;;;;;2.05;0.85;;;;;;;17.19;57.31;90952.31;4996965;28;20034;-85
2021/07/11 10:01:43;;;;;;;2.60;0.80;;;;;;;17.33;53.15;90952.41;4955535;28;20430;-86
2021/07/11 10:04:13;;;;;;;4.30;0.70;;;;;;;17.66;52.36;90956.69;4972171;28;20483;-86
2021/07/11 10:06:40;;;;;;;1.65;0.80;;;;;;;17.96;52.69;90949.69;4972404;28;20081;-87
2021/07/11 10:09:07;;;;;;;1.30;0.80;;;;;;;18.19;50.96;90944.09;4973694;28;20546;-87
2021/07/11 10:11:41;;;;;;;1.08;0.77;;;;;;;17.68;54.25;90951.81;4956464;28;20121;-86
2021/07/11 10:14:10;;;;;;;3.33;1.48;;;;;;;17.67;56.26;90952.19;4973189;28;20082;-86
2021/07/11 10:16:41;;;;;;;4.80;1.55;;;;;;;17.56;57.18;90949.50;4956728;28;20094;-86
2021/07/11 10:19:10;;;;;;;2.78;1.77;;;;;;;17.73;58.32;90957.84;4956487;28;20410;-86
2021/07/11 10:21:44;;;;;;;3.35;1.88;;;;;;;16.95;61.05;90951.03;4955732;28;20062;-86
2021/07/11 10:24:19;;;;;;;;;;;;;;;17.43;60.57;90950.94;4957494;28;20526;-86
2021/07/11 10:26:51;;;;;;;4.65;1.67;;;;;;;17.78;60.56;90944.38;4963826;28;19918;-85
2021/07/11 10:29:23;;;;;;;4.80;1.13;;;;;;;17.77;54.80;90948.84;4954208;29;20027;-87
2021/07/11 10:31:51;;;;;;;1.70;0.95;;;;;;;18.12;53.78;90950.09;4982290;28;20439;-88
2021/07/11 10:34:38;;;;;;;1.27;0.73;;;;;;;18.18;51.22;90947.88;4958802;28;20027;-86
2021/07/11 10:37:20;;;;;;;1.48;0.85;;;;;;;18.34;52.65;90940.38;4970841;28;20058;-86
2021/07/11 10:40:07;;;;;;;2.65;1.67;;;;;;;18.23;57.08;90948.25;4943236;29;20090;-86
2021/07/11 10:42:34;;;;;;;6.45;1.85;;;;;;;17.93;56.81;90945.91;4965660;28;20462;-86
2021/07/11 10:45:05;;;;;;;6.07;2.10;;;;;;;17.94;57.64;90957.97;4955421;28;20514;-86
2021/07/11 10:47:37;;;;;;;2.95;1.90;;;;;;;17.39;58.99;90955.44;4936789;28;20035;-86
2021/07/11 10:50:11;;;;;;;3.95;1.60;;;;;;;17.80;59.64;90960.53;4955260;28;20035;-86
2021/07/11 10:52:38;;;;;;;;;;;;;;;17.94;58.20;90957.22;4969516;28;20054;-86
2021/07/11 10:55:09;;;;;;;3.35;1.65;;;;;;;18.00;58.49;90961.00;4952900;28;20005;-87
2021/07/11 10:57:36;;;;;;;3.13;1.48;;;;;;;17.99;57.28;90948.97;4925153;28;20122;-86
2021/07/11 11:00:20;;;;;;;2.83;1.52;;;;;;;17.83;58.05;90946.63;4954663;28;20588;-85
2021/07/11 11:02:50;;;;;;;9.07;2.10;;;;;;;17.86;58.51;90951.16;4955495;28;20023;-86
2021/07/11 11:05:24;;;;;;;2.30;1.60;;;;;;;17.90;58.38;90957.19;4957561;28;20062;-87
2021/07/11 11:08:09;;;;;;;3.45;1.38;;;;;;;17.91;57.13;90956.06;4936654;29;20074;-88
2021/07/11 11:10:35;;;;;;;2.05;1.25;;;;;;;17.79;57.18;90961.69;4970642;28;20038;-86
2021/07/11 11:13:03;;;;;;;2.47;1.88;;;;;;;17.88;57.01;90965.50;4970818;28;20022;-86
2021/07/11 11:15:41;;;;;;;2.10;1.15;;;;;;;17.95;56.72;90959.50;4971297;28;20030;-87
2021/07/11 11:18:18;;;;;;;2.33;1.33;;;;;;;17.98;56.37;90950.81;4960287;28;20027;-87
2021/07/11 11:20:50;;;;;;;4.45;1.50;;;;;;;18.11;58.22;90946.72;4951334;29;20042;-86
2021/07/11 11:23:16;;;;;;;3.33;1.70;;;;;;;18.07;57.87;90948.59;4952130;29;20028;-86
2021/07/11 11:25:44;;;;;;;4.13;1.90;;;;;;;17.98;57.53;90939.50;4960573;28;20023;-86
2021/07/11 11:28:15;;;;;;;3.75;1.52;;;;;;;18.35;59.59;90939.25;4970661;28;20034;-86
2021/07/11 11:30:45;;;;;;;2.28;1.30;;;;;;;18.02;55.12;90945.56;4970472;28;20027;-86
2021/07/11 11:33:12;;;;;;;2.78;1.70;;;;;;;17.68;57.37;90936.00;4970459;28;20022;-86
2021/07/11 11:35:44;;;;;;;3.17;1.38;;;;;;;17.59;56.97;90940.09;4971146;28;20019;-87
2021/07/11 11:38:12;;;;;;;2.13;1.13;;;;;;;17.18;56.91;90935.00;4972454;28;20026;-84
2021/07/11 11:40:44;;;;;;;1.98;1.33;;;;;;;17.12;57.91;90929.31;4974570;28;20617;-87
2021/07/11 11:43:21;;;;;;;3.53;1.70;;;;;;;17.36;59.25;90943.75;4953571;28;20122;-86
2021/07/11 11:45:48;;;;;;;2.33;1.48;;;;;;;17.32;57.89;90937.72;4924404;29;20115;-86
2021/07/11 11:48:23;;;;;;;3.40;1.63;;;;;;;17.49;57.90;90938.94;4967459;28;20038;-85
2021/07/11 11:50:52;;;;;;;4.60;1.50;;;;;;;17.96;58.09;90936.50;4975105;28;20085;-87
2021/07/11 11:53:21;;;;;;;4.95;1.50;;;;;;;18.19;53.82;90936.94;4949896;28;20050;-86
2021/07/11 11:55:56;;;;;;;2.92;1.30;;;;;;;18.23;54.21;90924.50;4975326;28;20027;-87
2021/07/11 11:58:29;;;;;;;5.35;1.10;;;;;;;17.86;51.47;90930.06;4958510;28;20031;-85
2021/07/11 12:01:11;;;;;;;1.88;1.30;;;;;;;17.97;53.41;90932.75;4938505;29;20494;-83
2021/07/11 12:03:39;;;;;;;3.90;1.40;;;;;;;18.10;54.82;90929.38;4939202;29;20031;-86
2021/07/11 12:06:06;;;;;;;2.78;1.55;;;;;;;18.28;56.94;90933.94;4955071;29;20373;-86
2021/07/11 12:08:40;;;;;;;2.70;1.40;;;;;;;17.58;54.67;90936.72;4939959;29;20038;-86
2021/07/11 12:11:15;;;;;;;4.70;1.70;;;;;;;17.64;54.56;90929.97;4954288;28;20058;-86
2021/07/11 12:13:46;;;;;;;1.92;1.30;;;;;;;17.99;53.70;90925.97;4939703;29;20031;-86
2021/07/11 12:16:21;;;;;;;2.80;1.52;;;;;;;18.21;54.64;90923.38;4955086;29;20031;-86
2021/07/11 12:18:55;;;;;;;1.90;1.27;;;;;;;18.22;54.07;90925.63;4954455;29;20027;-86
2021/07/11 12:21:29;;;;;;;2.20;1.33;;;;;;;18.71;53.57;90932.13;4938987;28;20106;-85
2021/07/11 12:24:00;;;;;;;2.33;1.17;;;;;;;18.83;54.16;90921.22;4938793;29;20034;-86